sensor_id;sensor_type;location;lat;lon;timestamp;P1;durP1;ratioP1;P2;durP2;ratioP2
26253;SDS011;53339;51.378;0.094;2023-04-08T00:02:17;23.05;;;12.48;;
26253;SDS011;53339;51.378;0.094;2023-04-08T00:07:15;21.10;;;11.10;;
26253;SDS011;53339;51.378;0.094;2023-04-08T00:09:48;21.15;;;12.35;;
26253;SDS011;53339;51.378;0.094;2023-04-08T00:12:18;20.45;;;9.90;;
26253;SDS011;53339;51.378;0.094;2023-04-08T00:14:46;21.08;;;11.55;;
26253;SDS011;53339;51.378;0.094;2023-04-08T00:17:14;18.73;;;8.55;;
26253;SDS011;53339;51.378;0.094;2023-04-08T00:19:45;20.90;;;11.18;;
26253;SDS011;53339;51.378;0.094;2023-04-08T00:22:17;20.98;;;12.38;;
26253;SDS011;53339;51.378;0.094;2023-04-08T00:24:46;16.60;;;7.72;;
26253;SDS011;53339;51.378;0.094;2023-04-08T00:27:15;13.10;;;6.80;;
26253;SDS011;53339;51.378;0.094;2023-04-08T00:29:44;29.20;;;7.93;;
26253;SDS011;53339;51.378;0.094;2023-04-08T00:32:14;17.45;;;8.18;;
26253;SDS011;53339;51.378;0.094;2023-04-08T00:34:46;18.83;;;9.70;;
26253;SDS011;53339;51.378;0.094;2023-04-08T00:37:15;23.23;;;6.47;;
26253;SDS011;53339;51.378;0.094;2023-04-08T00:39:44;18.25;;;11.00;;
26253;SDS011;53339;51.378;0.094;2023-04-08T00:42:12;21.23;;;10.10;;
26253;SDS011;53339;51.378;0.094;2023-04-08T00:44:44;18.10;;;10.75;;
26253;SDS011;53339;51.378;0.094;2023-04-08T00:47:12;15.93;;;9.20;;
26253;SDS011;53339;51.378;0.094;2023-04-08T00:52:11;16.65;;;6.28;;
26253;SDS011;53339;51.378;0.094;2023-04-08T00:54:43;14.73;;;8.65;;
26253;SDS011;53339;51.378;0.094;2023-04-08T00:57:11;13.77;;;8.15;;
26253;SDS011;53339;51.378;0.094;2023-04-08T00:59:44;15.85;;;6.85;;
26253;SDS011;53339;51.378;0.094;2023-04-08T01:05:04;15.02;;;5.70;;
26253;SDS011;53339;51.378;0.094;2023-04-08T01:07:43;11.32;;;4.72;;
26253;SDS011;53339;51.378;0.094;2023-04-08T01:10:17;13.90;;;6.20;;
26253;SDS011;53339;51.378;0.094;2023-04-08T01:13:07;20.65;;;6.47;;
26253;SDS011;53339;51.378;0.094;2023-04-08T01:15:38;19.48;;;4.97;;
26253;SDS011;53339;51.378;0.094;2023-04-08T01:18:09;11.95;;;4.68;;
26253;SDS011;53339;51.378;0.094;2023-04-08T01:20:43;17.65;;;9.00;;
26253;SDS011;53339;51.378;0.094;2023-04-08T01:25:51;10.18;;;6.53;;
26253;SDS011;53339;51.378;0.094;2023-04-08T01:28:21;11.82;;;4.28;;
26253;SDS011;53339;51.378;0.094;2023-04-08T01:30:54;8.00;;;6.22;;
26253;SDS011;53339;51.378;0.094;2023-04-08T01:33:26;12.77;;;5.82;;
26253;SDS011;53339;51.378;0.094;2023-04-08T01:35:56;14.75;;;4.55;;
26253;SDS011;53339;51.378;0.094;2023-04-08T01:38:35;11.52;;;4.40;;
26253;SDS011;53339;51.378;0.094;2023-04-08T01:41:05;13.63;;;7.68;;
26253;SDS011;53339;51.378;0.094;2023-04-08T01:43:39;12.32;;;8.85;;
26253;SDS011;53339;51.378;0.094;2023-04-08T01:46:11;10.45;;;7.43;;
26253;SDS011;53339;51.378;0.094;2023-04-08T01:48:40;9.57;;;5.80;;
26253;SDS011;53339;51.378;0.094;2023-04-08T01:51:09;12.13;;;4.93;;
26253;SDS011;53339;51.378;0.094;2023-04-08T01:53:39;14.88;;;8.55;;
26253;SDS011;53339;51.378;0.094;2023-04-08T01:56:11;12.63;;;5.75;;
26253;SDS011;53339;51.378;0.094;2023-04-08T01:58:45;10.48;;;4.97;;
26253;SDS011;53339;51.378;0.094;2023-04-08T02:01:19;11.27;;;5.93;;
26253;SDS011;53339;51.378;0.094;2023-04-08T02:03:52;9.07;;;4.65;;
26253;SDS011;53339;51.378;0.094;2023-04-08T02:06:26;9.45;;;5.93;;
26253;SDS011;53339;51.378;0.094;2023-04-08T02:08:59;9.10;;;3.70;;
26253;SDS011;53339;51.378;0.094;2023-04-08T02:13:59;9.75;;;4.10;;
26253;SDS011;53339;51.378;0.094;2023-04-08T02:19:16;6.90;;;3.15;;
26253;SDS011;53339;51.378;0.094;2023-04-08T02:21:56;11.50;;;6.43;;
26253;SDS011;53339;51.378;0.094;2023-04-08T02:24:36;8.63;;;3.85;;
26253;SDS011;53339;51.378;0.094;2023-04-08T02:29:35;9.32;;;4.97;;
26253;SDS011;53339;51.378;0.094;2023-04-08T02:32:07;10.10;;;2.97;;
26253;SDS011;53339;51.378;0.094;2023-04-08T02:34:39;8.23;;;3.33;;
26253;SDS011;53339;51.378;0.094;2023-04-08T02:37:16;8.27;;;5.13;;
26253;SDS011;53339;51.378;0.094;2023-04-08T02:39:45;8.77;;;4.00;;
26253;SDS011;53339;51.378;0.094;2023-04-08T02:42:15;8.40;;;3.90;;
26253;SDS011;53339;51.378;0.094;2023-04-08T02:44:44;11.43;;;6.45;;
26253;SDS011;53339;51.378;0.094;2023-04-08T02:47:18;10.57;;;6.53;;
26253;SDS011;53339;51.378;0.094;2023-04-08T02:49:46;10.52;;;6.68;;
26253;SDS011;53339;51.378;0.094;2023-04-08T02:52:15;12.30;;;4.10;;
26253;SDS011;53339;51.378;0.094;2023-04-08T02:54:44;11.93;;;7.55;;
26253;SDS011;53339;51.378;0.094;2023-04-08T02:57:11;10.00;;;4.93;;
26253;SDS011;53339;51.378;0.094;2023-04-08T02:59:41;11.43;;;6.43;;
26253;SDS011;53339;51.378;0.094;2023-04-08T03:02:08;11.70;;;7.63;;
26253;SDS011;53339;51.378;0.094;2023-04-08T03:04:37;18.50;;;8.85;;
26253;SDS011;53339;51.378;0.094;2023-04-08T03:07:06;12.70;;;6.72;;
26253;SDS011;53339;51.378;0.094;2023-04-08T03:09:35;10.82;;;6.90;;
26253;SDS011;53339;51.378;0.094;2023-04-08T03:12:07;9.18;;;6.93;;
26253;SDS011;53339;51.378;0.094;2023-04-08T03:14:37;12.70;;;6.97;;
26253;SDS011;53339;51.378;0.094;2023-04-08T03:17:05;12.57;;;8.65;;
26253;SDS011;53339;51.378;0.094;2023-04-08T03:19:33;13.85;;;8.60;;
26253;SDS011;53339;51.378;0.094;2023-04-08T03:22:02;14.20;;;5.45;;
26253;SDS011;53339;51.378;0.094;2023-04-08T03:24:32;17.83;;;7.35;;
26253;SDS011;53339;51.378;0.094;2023-04-08T03:27:06;12.77;;;5.95;;
26253;SDS011;53339;51.378;0.094;2023-04-08T03:29:37;14.73;;;6.18;;
26253;SDS011;53339;51.378;0.094;2023-04-08T03:32:10;14.77;;;6.10;;
26253;SDS011;53339;51.378;0.094;2023-04-08T03:34:44;17.23;;;6.50;;
26253;SDS011;53339;51.378;0.094;2023-04-08T03:37:16;12.45;;;8.98;;
26253;SDS011;53339;51.378;0.094;2023-04-08T03:42:15;12.93;;;7.88;;
26253;SDS011;53339;51.378;0.094;2023-04-08T03:44:44;11.93;;;5.30;;
26253;SDS011;53339;51.378;0.094;2023-04-08T03:47:11;13.55;;;6.65;;
26253;SDS011;53339;51.378;0.094;2023-04-08T03:49:43;13.75;;;5.20;;
26253;SDS011;53339;51.378;0.094;2023-04-08T03:54:43;12.27;;;4.85;;
26253;SDS011;53339;51.378;0.094;2023-04-08T03:57:12;15.35;;;8.88;;
26253;SDS011;53339;51.378;0.094;2023-04-08T03:59:40;15.52;;;6.07;;
26253;SDS011;53339;51.378;0.094;2023-04-08T04:02:10;14.30;;;5.60;;
26253;SDS011;53339;51.378;0.094;2023-04-08T04:04:39;17.23;;;5.85;;
26253;SDS011;53339;51.378;0.094;2023-04-08T04:07:24;10.57;;;4.93;;
26253;SDS011;53339;51.378;0.094;2023-04-08T04:09:52;7.57;;;4.35;;
26253;SDS011;53339;51.378;0.094;2023-04-08T04:12:22;10.68;;;4.90;;
26253;SDS011;53339;51.378;0.094;2023-04-08T04:14:50;14.45;;;8.05;;
26253;SDS011;53339;51.378;0.094;2023-04-08T04:17:21;13.50;;;6.75;;
26253;SDS011;53339;51.378;0.094;2023-04-08T04:19:49;8.73;;;7.22;;
26253;SDS011;53339;51.378;0.094;2023-04-08T04:22:17;13.00;;;8.35;;
26253;SDS011;53339;51.378;0.094;2023-04-08T04:24:47;17.15;;;6.90;;
26253;SDS011;53339;51.378;0.094;2023-04-08T04:27:16;6.07;;;5.57;;
26253;SDS011;53339;51.378;0.094;2023-04-08T04:29:45;10.23;;;3.95;;
26253;SDS011;53339;51.378;0.094;2023-04-08T04:32:18;11.75;;;5.32;;
26253;SDS011;53339;51.378;0.094;2023-04-08T04:34:47;10.85;;;6.68;;
26253;SDS011;53339;51.378;0.094;2023-04-08T04:37:20;10.93;;;8.00;;
26253;SDS011;53339;51.378;0.094;2023-04-08T04:39:48;11.00;;;3.72;;
26253;SDS011;53339;51.378;0.094;2023-04-08T04:42:19;13.38;;;5.20;;
26253;SDS011;53339;51.378;0.094;2023-04-08T04:44:54;9.02;;;6.95;;
26253;SDS011;53339;51.378;0.094;2023-04-08T04:47:23;13.77;;;6.70;;
26253;SDS011;53339;51.378;0.094;2023-04-08T04:49:52;11.55;;;5.80;;
26253;SDS011;53339;51.378;0.094;2023-04-08T04:52:22;14.75;;;8.18;;
26253;SDS011;53339;51.378;0.094;2023-04-08T04:54:50;8.43;;;3.67;;
26253;SDS011;53339;51.378;0.094;2023-04-08T04:57:18;11.40;;;6.45;;
26253;SDS011;53339;51.378;0.094;2023-04-08T04:59:51;6.78;;;6.07;;
26253;SDS011;53339;51.378;0.094;2023-04-08T05:02:23;14.15;;;5.38;;
26253;SDS011;53339;51.378;0.094;2023-04-08T05:04:58;10.93;;;4.45;;
26253;SDS011;53339;51.378;0.094;2023-04-08T05:07:30;10.18;;;4.63;;
26253;SDS011;53339;51.378;0.094;2023-04-08T05:09:59;9.48;;;4.57;;
26253;SDS011;53339;51.378;0.094;2023-04-08T05:12:28;10.52;;;5.13;;
26253;SDS011;53339;51.378;0.094;2023-04-08T05:14:58;10.00;;;4.28;;
26253;SDS011;53339;51.378;0.094;2023-04-08T05:17:30;9.82;;;5.90;;
26253;SDS011;53339;51.378;0.094;2023-04-08T05:20:02;10.45;;;6.57;;
26253;SDS011;53339;51.378;0.094;2023-04-08T05:22:32;10.05;;;4.32;;
26253;SDS011;53339;51.378;0.094;2023-04-08T05:25:01;14.55;;;7.35;;
26253;SDS011;53339;51.378;0.094;2023-04-08T05:27:35;7.50;;;3.05;;
26253;SDS011;53339;51.378;0.094;2023-04-08T05:30:05;11.68;;;6.47;;
26253;SDS011;53339;51.378;0.094;2023-04-08T05:32:36;8.68;;;6.53;;
26253;SDS011;53339;51.378;0.094;2023-04-08T05:35:05;7.07;;;6.35;;
26253;SDS011;53339;51.378;0.094;2023-04-08T05:37:34;4.97;;;3.38;;
26253;SDS011;53339;51.378;0.094;2023-04-08T05:40:05;9.50;;;3.70;;
26253;SDS011;53339;51.378;0.094;2023-04-08T05:42:36;12.02;;;3.80;;
26253;SDS011;53339;51.378;0.094;2023-04-08T05:45:06;7.82;;;5.10;;
26253;SDS011;53339;51.378;0.094;2023-04-08T05:47:33;8.10;;;6.32;;
26253;SDS011;53339;51.378;0.094;2023-04-08T05:50:02;11.32;;;9.60;;
26253;SDS011;53339;51.378;0.094;2023-04-08T05:52:35;12.73;;;8.80;;
26253;SDS011;53339;51.378;0.094;2023-04-08T05:55:02;8.82;;;3.25;;
26253;SDS011;53339;51.378;0.094;2023-04-08T05:57:31;9.95;;;6.45;;
26253;SDS011;53339;51.378;0.094;2023-04-08T05:59:59;7.55;;;6.20;;
26253;SDS011;53339;51.378;0.094;2023-04-08T06:02:38;11.38;;;7.40;;
26253;SDS011;53339;51.378;0.094;2023-04-08T06:05:07;9.55;;;4.28;;
26253;SDS011;53339;51.378;0.094;2023-04-08T06:07:37;7.70;;;5.68;;
26253;SDS011;53339;51.378;0.094;2023-04-08T06:10:06;7.53;;;4.05;;
26253;SDS011;53339;51.378;0.094;2023-04-08T06:12:37;14.05;;;4.88;;
26253;SDS011;53339;51.378;0.094;2023-04-08T06:15:05;8.45;;;4.60;;
26253;SDS011;53339;51.378;0.094;2023-04-08T06:17:36;10.77;;;3.30;;
26253;SDS011;53339;51.378;0.094;2023-04-08T06:20:04;14.05;;;6.72;;
26253;SDS011;53339;51.378;0.094;2023-04-08T06:22:34;9.25;;;3.95;;
26253;SDS011;53339;51.378;0.094;2023-04-08T06:25:02;6.68;;;4.18;;
26253;SDS011;53339;51.378;0.094;2023-04-08T06:27:31;7.97;;;6.25;;
26253;SDS011;53339;51.378;0.094;2023-04-08T06:30:01;11.25;;;3.45;;
26253;SDS011;53339;51.378;0.094;2023-04-08T06:32:32;10.93;;;6.38;;
26253;SDS011;53339;51.378;0.094;2023-04-08T06:35:03;8.15;;;3.35;;
26253;SDS011;53339;51.378;0.094;2023-04-08T06:37:31;10.43;;;6.13;;
26253;SDS011;53339;51.378;0.094;2023-04-08T06:40:00;9.43;;;6.35;;
26253;SDS011;53339;51.378;0.094;2023-04-08T06:42:28;11.68;;;7.03;;
26253;SDS011;53339;51.378;0.094;2023-04-08T06:45:09;11.00;;;4.40;;
26253;SDS011;53339;51.378;0.094;2023-04-08T06:47:40;12.45;;;4.63;;
26253;SDS011;53339;51.378;0.094;2023-04-08T06:50:08;15.00;;;7.70;;
26253;SDS011;53339;51.378;0.094;2023-04-08T06:52:37;13.88;;;8.18;;
26253;SDS011;53339;51.378;0.094;2023-04-08T06:55:08;12.82;;;4.28;;
26253;SDS011;53339;51.378;0.094;2023-04-08T06:57:36;12.52;;;6.78;;
26253;SDS011;53339;51.378;0.094;2023-04-08T07:00:09;13.80;;;4.53;;
26253;SDS011;53339;51.378;0.094;2023-04-08T07:02:41;13.15;;;7.72;;
26253;SDS011;53339;51.378;0.094;2023-04-08T07:05:09;12.75;;;6.20;;
26253;SDS011;53339;51.378;0.094;2023-04-08T07:07:43;15.77;;;6.97;;
26253;SDS011;53339;51.378;0.094;2023-04-08T07:10:13;14.23;;;8.40;;
26253;SDS011;53339;51.378;0.094;2023-04-08T07:12:41;13.13;;;7.57;;
26253;SDS011;53339;51.378;0.094;2023-04-08T07:15:09;12.63;;;8.02;;
26253;SDS011;53339;51.378;0.094;2023-04-08T07:17:37;12.13;;;5.68;;
26253;SDS011;53339;51.378;0.094;2023-04-08T07:20:07;11.82;;;5.88;;
26253;SDS011;53339;51.378;0.094;2023-04-08T07:22:35;11.10;;;4.95;;
26253;SDS011;53339;51.378;0.094;2023-04-08T07:25:05;15.40;;;6.35;;
26253;SDS011;53339;51.378;0.094;2023-04-08T07:27:35;12.45;;;7.68;;
26253;SDS011;53339;51.378;0.094;2023-04-08T07:30:08;15.35;;;5.18;;
26253;SDS011;53339;51.378;0.094;2023-04-08T07:32:37;15.93;;;5.35;;
26253;SDS011;53339;51.378;0.094;2023-04-08T07:35:09;12.98;;;5.60;;
26253;SDS011;53339;51.378;0.094;2023-04-08T07:37:39;16.52;;;5.68;;
26253;SDS011;53339;51.378;0.094;2023-04-08T07:40:08;20.00;;;6.35;;
26253;SDS011;53339;51.378;0.094;2023-04-08T07:42:41;15.27;;;5.80;;
26253;SDS011;53339;51.378;0.094;2023-04-08T07:45:11;14.95;;;6.90;;
26253;SDS011;53339;51.378;0.094;2023-04-08T07:47:42;14.27;;;8.27;;
26253;SDS011;53339;51.378;0.094;2023-04-08T07:50:11;13.13;;;5.68;;
26253;SDS011;53339;51.378;0.094;2023-04-08T07:52:40;14.75;;;6.88;;
26253;SDS011;53339;51.378;0.094;2023-04-08T07:55:09;17.83;;;7.00;;
26253;SDS011;53339;51.378;0.094;2023-04-08T07:57:37;15.93;;;8.85;;
26253;SDS011;53339;51.378;0.094;2023-04-08T08:00:06;17.42;;;6.40;;
26253;SDS011;53339;51.378;0.094;2023-04-08T08:02:41;16.48;;;6.45;;
26253;SDS011;53339;51.378;0.094;2023-04-08T08:05:16;12.68;;;8.35;;
26253;SDS011;53339;51.378;0.094;2023-04-08T08:07:45;15.07;;;5.63;;
26253;SDS011;53339;51.378;0.094;2023-04-08T08:10:16;11.93;;;4.85;;
26253;SDS011;53339;51.378;0.094;2023-04-08T08:12:45;12.93;;;5.53;;
26253;SDS011;53339;51.378;0.094;2023-04-08T08:15:14;13.57;;;5.47;;
26253;SDS011;53339;51.378;0.094;2023-04-08T08:17:44;13.30;;;5.50;;
26253;SDS011;53339;51.378;0.094;2023-04-08T08:20:18;10.20;;;5.22;;
26253;SDS011;53339;51.378;0.094;2023-04-08T08:22:46;14.50;;;5.38;;
26253;SDS011;53339;51.378;0.094;2023-04-08T08:25:24;11.73;;;5.15;;
26253;SDS011;53339;51.378;0.094;2023-04-08T08:27:53;12.73;;;4.60;;
26253;SDS011;53339;51.378;0.094;2023-04-08T08:30:27;10.73;;;5.75;;
26253;SDS011;53339;51.378;0.094;2023-04-08T08:32:57;12.52;;;4.80;;
26253;SDS011;53339;51.378;0.094;2023-04-08T08:35:31;12.95;;;4.30;;
26253;SDS011;53339;51.378;0.094;2023-04-08T08:38:07;13.23;;;6.93;;
26253;SDS011;53339;51.378;0.094;2023-04-08T08:40:39;11.38;;;4.68;;
26253;SDS011;53339;51.378;0.094;2023-04-08T08:43:08;13.02;;;7.07;;
26253;SDS011;53339;51.378;0.094;2023-04-08T08:48:14;10.27;;;4.30;;
26253;SDS011;53339;51.378;0.094;2023-04-08T08:50:48;12.02;;;4.28;;
26253;SDS011;53339;51.378;0.094;2023-04-08T08:53:17;9.50;;;4.38;;
26253;SDS011;53339;51.378;0.094;2023-04-08T08:55:46;10.25;;;3.95;;
26253;SDS011;53339;51.378;0.094;2023-04-08T08:58:36;9.45;;;4.13;;
26253;SDS011;53339;51.378;0.094;2023-04-08T09:06:40;11.43;;;4.95;;
26253;SDS011;53339;51.378;0.094;2023-04-08T09:09:12;12.05;;;4.55;;
26253;SDS011;53339;51.378;0.094;2023-04-08T09:11:45;13.70;;;5.10;;
26253;SDS011;53339;51.378;0.094;2023-04-08T09:14:20;25.48;;;5.85;;
26253;SDS011;53339;51.378;0.094;2023-04-08T09:16:55;11.82;;;4.20;;
26253;SDS011;53339;51.378;0.094;2023-04-08T09:19:26;9.80;;;6.35;;
26253;SDS011;53339;51.378;0.094;2023-04-08T09:22:07;8.73;;;5.75;;
26253;SDS011;53339;51.378;0.094;2023-04-08T09:24:37;9.52;;;4.05;;
26253;SDS011;53339;51.378;0.094;2023-04-08T09:27:05;10.82;;;3.35;;
26253;SDS011;53339;51.378;0.094;2023-04-08T09:29:40;9.40;;;5.30;;
26253;SDS011;53339;51.378;0.094;2023-04-08T09:32:08;9.02;;;4.03;;
26253;SDS011;53339;51.378;0.094;2023-04-08T09:34:36;10.50;;;4.90;;
26253;SDS011;53339;51.378;0.094;2023-04-08T09:37:05;8.57;;;5.72;;
26253;SDS011;53339;51.378;0.094;2023-04-08T09:39:38;7.97;;;3.85;;
26253;SDS011;53339;51.378;0.094;2023-04-08T09:42:06;9.27;;;5.93;;
26253;SDS011;53339;51.378;0.094;2023-04-08T09:44:42;7.63;;;3.65;;
26253;SDS011;53339;51.378;0.094;2023-04-08T09:47:21;7.40;;;4.88;;
26253;SDS011;53339;51.378;0.094;2023-04-08T09:49:54;7.30;;;3.25;;
26253;SDS011;53339;51.378;0.094;2023-04-08T09:52:29;6.68;;;5.78;;
26253;SDS011;53339;51.378;0.094;2023-04-08T09:55:03;7.50;;;4.55;;
26253;SDS011;53339;51.378;0.094;2023-04-08T09:57:40;6.80;;;2.22;;
26253;SDS011;53339;51.378;0.094;2023-04-08T10:00:32;7.72;;;2.92;;
26253;SDS011;53339;51.378;0.094;2023-04-08T10:03:28;5.80;;;2.53;;
26253;SDS011;53339;51.378;0.094;2023-04-08T10:06:03;8.00;;;3.08;;
26253;SDS011;53339;51.378;0.094;2023-04-08T10:08:38;7.93;;;4.40;;
26253;SDS011;53339;51.378;0.094;2023-04-08T10:11:06;8.02;;;3.40;;
26253;SDS011;53339;51.378;0.094;2023-04-08T10:13:35;9.77;;;6.03;;
26253;SDS011;53339;51.378;0.094;2023-04-08T10:16:20;8.95;;;5.60;;
26253;SDS011;53339;51.378;0.094;2023-04-08T10:18:58;8.30;;;4.25;;
26253;SDS011;53339;51.378;0.094;2023-04-08T10:21:37;9.18;;;4.75;;
26253;SDS011;53339;51.378;0.094;2023-04-08T10:24:09;9.85;;;5.88;;
26253;SDS011;53339;51.378;0.094;2023-04-08T10:26:43;10.65;;;4.07;;
26253;SDS011;53339;51.378;0.094;2023-04-08T10:31:48;8.85;;;3.70;;
26253;SDS011;53339;51.378;0.094;2023-04-08T10:34:20;8.90;;;4.55;;
26253;SDS011;53339;51.378;0.094;2023-04-08T10:36:53;12.60;;;5.55;;
26253;SDS011;53339;51.378;0.094;2023-04-08T10:39:29;7.90;;;3.38;;
26253;SDS011;53339;51.378;0.094;2023-04-08T10:41:58;6.90;;;3.42;;
26253;SDS011;53339;51.378;0.094;2023-04-08T10:44:29;6.97;;;3.67;;
26253;SDS011;53339;51.378;0.094;2023-04-08T10:46:58;7.90;;;3.35;;
26253;SDS011;53339;51.378;0.094;2023-04-08T10:49:31;8.75;;;5.68;;
26253;SDS011;53339;51.378;0.094;2023-04-08T10:52:05;9.57;;;6.28;;
26253;SDS011;53339;51.378;0.094;2023-04-08T10:54:35;9.05;;;3.38;;
26253;SDS011;53339;51.378;0.094;2023-04-08T10:57:05;9.15;;;4.80;;
26253;SDS011;53339;51.378;0.094;2023-04-08T10:59:35;8.20;;;4.82;;
26253;SDS011;53339;51.378;0.094;2023-04-08T11:02:02;8.65;;;5.47;;
26253;SDS011;53339;51.378;0.094;2023-04-08T11:04:32;7.35;;;3.17;;
26253;SDS011;53339;51.378;0.094;2023-04-08T11:07:01;10.65;;;6.15;;
26253;SDS011;53339;51.378;0.094;2023-04-08T11:09:38;6.80;;;4.53;;
26253;SDS011;53339;51.378;0.094;2023-04-08T11:12:10;6.93;;;3.22;;
26253;SDS011;53339;51.378;0.094;2023-04-08T11:14:39;8.00;;;5.53;;
26253;SDS011;53339;51.378;0.094;2023-04-08T11:17:16;8.35;;;5.18;;
26253;SDS011;53339;51.378;0.094;2023-04-08T11:19:45;8.05;;;4.70;;
26253;SDS011;53339;51.378;0.094;2023-04-08T11:22:14;13.23;;;5.53;;
26253;SDS011;53339;51.378;0.094;2023-04-08T11:24:43;6.75;;;3.60;;
26253;SDS011;53339;51.378;0.094;2023-04-08T11:27:13;5.93;;;4.25;;
26253;SDS011;53339;51.378;0.094;2023-04-08T11:29:43;6.45;;;2.92;;
26253;SDS011;53339;51.378;0.094;2023-04-08T11:32:11;7.22;;;4.25;;
26253;SDS011;53339;51.378;0.094;2023-04-08T11:34:39;4.68;;;2.28;;
26253;SDS011;53339;51.378;0.094;2023-04-08T11:37:08;7.07;;;4.25;;
26253;SDS011;53339;51.378;0.094;2023-04-08T11:39:43;7.22;;;4.47;;
26253;SDS011;53339;51.378;0.094;2023-04-08T11:42:28;6.85;;;4.57;;
26253;SDS011;53339;51.378;0.094;2023-04-08T11:44:57;7.13;;;5.13;;
26253;SDS011;53339;51.378;0.094;2023-04-08T11:47:39;6.18;;;5.50;;
26253;SDS011;53339;51.378;0.094;2023-04-08T11:50:09;5.35;;;2.50;;
26253;SDS011;53339;51.378;0.094;2023-04-08T11:52:51;6.05;;;3.75;;
26253;SDS011;53339;51.378;0.094;2023-04-08T11:55:24;7.13;;;4.32;;
26253;SDS011;53339;51.378;0.094;2023-04-08T11:58:02;6.60;;;5.03;;
26253;SDS011;53339;51.378;0.094;2023-04-08T12:00:32;7.70;;;5.20;;
26253;SDS011;53339;51.378;0.094;2023-04-08T12:03:02;5.93;;;4.28;;
26253;SDS011;53339;51.378;0.094;2023-04-08T12:05:32;6.47;;;4.53;;
26253;SDS011;53339;51.378;0.094;2023-04-08T12:08:02;9.95;;;5.78;;
26253;SDS011;53339;51.378;0.094;2023-04-08T12:10:34;6.15;;;4.05;;
26253;SDS011;53339;51.378;0.094;2023-04-08T12:13:05;7.60;;;4.45;;
26253;SDS011;53339;51.378;0.094;2023-04-08T12:15:35;5.53;;;2.30;;
26253;SDS011;53339;51.378;0.094;2023-04-08T12:20:37;6.45;;;4.70;;
26253;SDS011;53339;51.378;0.094;2023-04-08T12:23:19;6.28;;;4.53;;
26253;SDS011;53339;51.378;0.094;2023-04-08T12:25:48;7.97;;;4.32;;
26253;SDS011;53339;51.378;0.094;2023-04-08T12:28:17;5.82;;;4.22;;
26253;SDS011;53339;51.378;0.094;2023-04-08T12:30:46;7.18;;;2.70;;
26253;SDS011;53339;51.378;0.094;2023-04-08T12:33:15;8.65;;;4.78;;
26253;SDS011;53339;51.378;0.094;2023-04-08T12:38:16;7.70;;;4.97;;
26253;SDS011;53339;51.378;0.094;2023-04-08T12:40:54;6.50;;;2.10;;
26253;SDS011;53339;51.378;0.094;2023-04-08T12:43:24;6.85;;;2.40;;
26253;SDS011;53339;51.378;0.094;2023-04-08T12:48:28;7.38;;;5.75;;
26253;SDS011;53339;51.378;0.094;2023-04-08T12:50:58;93.43;;;5.80;;
26253;SDS011;53339;51.378;0.094;2023-04-08T12:53:27;6.93;;;2.30;;
26253;SDS011;53339;51.378;0.094;2023-04-08T12:55:58;5.00;;;2.33;;
26253;SDS011;53339;51.378;0.094;2023-04-08T13:00:56;7.22;;;3.80;;
26253;SDS011;53339;51.378;0.094;2023-04-08T13:03:25;4.70;;;2.50;;
26253;SDS011;53339;51.378;0.094;2023-04-08T13:05:57;5.72;;;3.85;;
26253;SDS011;53339;51.378;0.094;2023-04-08T13:08:25;6.07;;;4.50;;
26253;SDS011;53339;51.378;0.094;2023-04-08T13:10:54;7.00;;;4.30;;
26253;SDS011;53339;51.378;0.094;2023-04-08T13:13:23;8.57;;;4.53;;
26253;SDS011;53339;51.378;0.094;2023-04-08T13:15:53;7.65;;;4.28;;
26253;SDS011;53339;51.378;0.094;2023-04-08T13:18:26;6.53;;;3.85;;
26253;SDS011;53339;51.378;0.094;2023-04-08T13:20:55;5.50;;;4.15;;
26253;SDS011;53339;51.378;0.094;2023-04-08T13:23:25;6.75;;;3.70;;
26253;SDS011;53339;51.378;0.094;2023-04-08T13:28:23;5.93;;;3.95;;
26253;SDS011;53339;51.378;0.094;2023-04-08T13:30:51;7.38;;;4.63;;
26253;SDS011;53339;51.378;0.094;2023-04-08T13:33:21;5.18;;;3.80;;
26253;SDS011;53339;51.378;0.094;2023-04-08T13:35:50;7.13;;;4.45;;
26253;SDS011;53339;51.378;0.094;2023-04-08T13:38:20;6.22;;;4.20;;
26253;SDS011;53339;51.378;0.094;2023-04-08T13:40:50;6.25;;;3.80;;
26253;SDS011;53339;51.378;0.094;2023-04-08T13:43:19;5.50;;;3.47;;
26253;SDS011;53339;51.378;0.094;2023-04-08T13:45:49;5.93;;;3.42;;
26253;SDS011;53339;51.378;0.094;2023-04-08T13:48:20;5.28;;;3.92;;
26253;SDS011;53339;51.378;0.094;2023-04-08T13:50:50;5.97;;;2.53;;
26253;SDS011;53339;51.378;0.094;2023-04-08T13:53:19;6.03;;;2.30;;
26253;SDS011;53339;51.378;0.094;2023-04-08T13:55:48;6.57;;;4.00;;
26253;SDS011;53339;51.378;0.094;2023-04-08T13:58:21;5.30;;;3.00;;
26253;SDS011;53339;51.378;0.094;2023-04-08T14:00:50;5.97;;;2.65;;
26253;SDS011;53339;51.378;0.094;2023-04-08T14:03:18;5.10;;;2.65;;
26253;SDS011;53339;51.378;0.094;2023-04-08T14:05:50;4.28;;;2.90;;
26253;SDS011;53339;51.378;0.094;2023-04-08T14:08:23;7.10;;;4.65;;
26253;SDS011;53339;51.378;0.094;2023-04-08T14:10:55;5.45;;;3.92;;
26253;SDS011;53339;51.378;0.094;2023-04-08T14:13:31;5.80;;;4.10;;
26253;SDS011;53339;51.378;0.094;2023-04-08T14:15:59;5.50;;;3.83;;
26253;SDS011;53339;51.378;0.094;2023-04-08T14:18:29;6.88;;;3.30;;
26253;SDS011;53339;51.378;0.094;2023-04-08T14:21:01;5.20;;;3.40;;
26253;SDS011;53339;51.378;0.094;2023-04-08T14:23:32;6.15;;;3.53;;
26253;SDS011;53339;51.378;0.094;2023-04-08T14:26:01;7.35;;;3.70;;
26253;SDS011;53339;51.378;0.094;2023-04-08T14:28:32;5.97;;;4.18;;
26253;SDS011;53339;51.378;0.094;2023-04-08T14:31:01;5.53;;;4.05;;
26253;SDS011;53339;51.378;0.094;2023-04-08T14:33:31;6.07;;;3.58;;
26253;SDS011;53339;51.378;0.094;2023-04-08T14:36:00;7.60;;;4.18;;
26253;SDS011;53339;51.378;0.094;2023-04-08T14:40:58;6.25;;;3.95;;
26253;SDS011;53339;51.378;0.094;2023-04-08T14:43:33;6.07;;;3.92;;
26253;SDS011;53339;51.378;0.094;2023-04-08T14:46:02;6.53;;;4.53;;
26253;SDS011;53339;51.378;0.094;2023-04-08T14:48:34;6.50;;;4.00;;
26253;SDS011;53339;51.378;0.094;2023-04-08T14:51:04;7.03;;;3.65;;
26253;SDS011;53339;51.378;0.094;2023-04-08T14:56:02;7.40;;;4.85;;
26253;SDS011;53339;51.378;0.094;2023-04-08T14:58:33;6.90;;;3.67;;
26253;SDS011;53339;51.378;0.094;2023-04-08T15:01:02;7.00;;;4.22;;
26253;SDS011;53339;51.378;0.094;2023-04-08T15:03:35;5.25;;;3.47;;
26253;SDS011;53339;51.378;0.094;2023-04-08T15:06:05;5.55;;;3.90;;
26253;SDS011;53339;51.378;0.094;2023-04-08T15:08:34;6.90;;;3.83;;
26253;SDS011;53339;51.378;0.094;2023-04-08T15:11:03;6.38;;;2.92;;
26253;SDS011;53339;51.378;0.094;2023-04-08T15:13:31;6.13;;;3.75;;
26253;SDS011;53339;51.378;0.094;2023-04-08T15:16:10;7.38;;;4.07;;
26253;SDS011;53339;51.378;0.094;2023-04-08T15:18:39;7.03;;;4.25;;
26253;SDS011;53339;51.378;0.094;2023-04-08T15:21:11;6.57;;;3.63;;
26253;SDS011;53339;51.378;0.094;2023-04-08T15:23:41;5.18;;;3.85;;
26253;SDS011;53339;51.378;0.094;2023-04-08T15:26:13;5.07;;;3.45;;
26253;SDS011;53339;51.378;0.094;2023-04-08T15:28:43;5.50;;;4.15;;
26253;SDS011;53339;51.378;0.094;2023-04-08T15:31:11;5.65;;;4.30;;
26253;SDS011;53339;51.378;0.094;2023-04-08T15:33:41;6.43;;;4.15;;
26253;SDS011;53339;51.378;0.094;2023-04-08T15:36:13;5.63;;;4.28;;
26253;SDS011;53339;51.378;0.094;2023-04-08T15:38:47;7.03;;;4.57;;
26253;SDS011;53339;51.378;0.094;2023-04-08T15:41:16;5.60;;;4.65;;
26253;SDS011;53339;51.378;0.094;2023-04-08T15:43:45;5.95;;;4.50;;
26253;SDS011;53339;51.378;0.094;2023-04-08T15:46:17;6.97;;;4.05;;
26253;SDS011;53339;51.378;0.094;2023-04-08T15:48:47;8.23;;;5.00;;
26253;SDS011;53339;51.378;0.094;2023-04-08T15:51:18;6.97;;;4.47;;
26253;SDS011;53339;51.378;0.094;2023-04-08T15:53:47;7.45;;;5.18;;
26253;SDS011;53339;51.378;0.094;2023-04-08T15:56:19;5.82;;;3.05;;